Time;durP1;ratioP1;P1;durP2;ratioP2;P2;SDS_P1;SDS_P2;PMS_P1;PMS_P2;Temp;Humidity;BMP_temperature;BMP_pressure;BME280_temperature;BME280_humidity;BME280_pressure;Samples;Min_cycle;Max_cycle;Signal;HPM_P1;HPM_P2
2023/07/27 03:01:21;;;;;;;;;;;14.20;99.90;;;;;;5550219;23;19922;-78
2023/07/27 03:03:47;;;;;;;;;;;14.20;99.90;;;;;;4974333;28;19918;-78
2023/07/27 03:06:12;;;;;;;;;;;14.10;99.90;;;;;;4958230;28;19925;-78
2023/07/27 03:08:38;;;;;;;;;;;14.10;99.90;;;;;;4974234;28;19925;-78
2023/07/27 03:11:04;;;;;;;;;;;14.10;99.90;;;;;;4981506;28;19924;-78
2023/07/27 03:13:30;;;;;;;;;;;14.10;99.90;;;;;;4993724;28;19999;-78
2023/07/27 03:15:56;;;;;;;;;;;14.10;99.90;;;;;;4993842;28;19953;-77
2023/07/27 03:18:22;;;;;;;;;;;14.00;99.90;;;;;;4994089;28;19922;-78
2023/07/27 03:20:47;;;;;;;;;;;14.00;99.90;;;;;;4994868;28;19921;-78
2023/07/27 03:23:13;;;;;;;;;;;14.00;99.90;;;;;;4993468;28;19922;-77
2023/07/27 03:25:39;;;;;;;;;;;14.00;99.90;;;;;;4995078;28;20353;-78
2023/07/27 03:28:05;;;;;;;;;;;13.90;99.90;;;;;;4994650;28;19921;-78
2023/07/27 03:30:35;;;;;;;;;;;13.90;99.90;;;;;;4993347;28;19936;-77
2023/07/27 03:33:01;;;;;;;;;;;13.90;99.90;;;;;;4995068;28;19918;-78
2023/07/27 03:35:27;;;;;;;;;;;13.90;99.90;;;;;;4994936;28;19925;-77
2023/07/27 03:37:53;;;;;;;;;;;13.90;99.90;;;;;;4993373;28;19917;-78
2023/07/27 03:40:19;;;;;;;;;;;13.80;99.90;;;;;;4993190;28;19921;-79
2023/07/27 03:42:44;;;;;;;;;;;13.80;99.90;;;;;;4993216;28;20270;-78
2023/07/27 03:45:10;;;;;;;;;;;13.80;99.90;;;;;;4993393;28;19979;-78
2023/07/27 03:47:35;;;;;;;;;;;13.80;99.90;;;;;;4993462;28;20350;-78
2023/07/27 03:50:01;;;;;;;;;;;13.80;99.90;;;;;;4994478;28;19925;-79
2023/07/27 03:52:26;;;;;;;;;;;13.80;99.90;;;;;;4993432;28;20280;-77
2023/07/27 03:54:52;;;;;;;;;;;13.70;99.90;;;;;;4994858;28;20375;-77
2023/07/27 03:57:17;;;;;;;;;;;13.70;99.90;;;;;;4993901;28;20008;-77
2023/07/27 03:59:43;;;;;;;;;;;13.70;99.90;;;;;;4993221;28;20012;-77
2023/07/27 04:02:08;;;;;;;;;;;13.70;99.90;;;;;;4994122;28;19953;-77
2023/07/27 04:04:34;;;;;;;;;;;13.70;99.90;;;;;;4993552;28;19952;-77
2023/07/27 04:07:00;;;;;;;;;;;13.70;99.90;;;;;;4992992;28;19917;-77
2023/07/27 04:09:25;;;;;;;;;;;13.60;99.90;;;;;;4993357;28;19937;-77
2023/07/27 04:11:52;;;;;;;;;;;13.70;99.90;;;;;;4976596;28;20365;-79
2023/07/27 04:14:17;;;;;;;;;;;13.70;99.90;;;;;;4992885;28;20004;-78
2023/07/27 04:16:43;;;;;;;;;;;13.70;99.90;;;;;;4992915;28;20078;-78
2023/07/27 04:19:09;;;;;;;;;;;13.70;99.90;;;;;;4992962;28;19918;-78
2023/07/27 04:21:34;;;;;;;;;;;13.70;99.90;;;;;;4992591;28;19972;-78
2023/07/27 04:24:00;;;;;;;;;;;13.60;99.90;;;;;;4993242;28;19925;-78
2023/07/27 04:26:25;;;;;;;;;;;13.70;99.90;;;;;;4993157;28;19921;-78
2023/07/27 04:28:51;;;;;;;;;;;13.60;99.90;;;;;;4992704;28;20020;-78
2023/07/27 04:31:16;;;;;;;;;;;13.60;99.90;;;;;;4994602;28;19917;-77
2023/07/27 04:33:42;;;;;;;;;;;13.60;99.90;;;;;;4996537;28;19917;-77
2023/07/27 04:36:07;;;;;;;;;;;13.60;99.90;;;;;;4996418;28;19918;-79
2023/07/27 04:38:47;;;;;;;;;;;13.70;99.90;;;;;;4996502;28;20300;-86
2023/07/27 04:41:19;;;;;;;;;;;13.70;99.90;;;;;;4969864;28;19976;-83
2023/07/27 04:43:45;;;;;;;;;;;13.70;99.90;;;;;;4978739;28;20362;-78
2023/07/27 04:46:11;;;;;;;;;;;13.60;99.90;;;;;;4976993;28;19957;-78
2023/07/27 04:48:36;;;;;;;;;;;13.60;99.90;;;;;;4977497;28;20104;-78
2023/07/27 04:51:02;;;;;;;;;;;13.70;99.90;;;;;;4978415;28;19918;-78
2023/07/27 04:53:27;;;;;;;;;;;13.70;99.90;;;;;;4976799;28;19922;-78
2023/07/27 04:55:53;;;;;;;;;;;13.70;99.90;;;;;;4977529;28;19918;-77
2023/07/27 04:58:19;;;;;;;;;;;13.70;99.90;;;;;;4996450;28;20004;-79
2023/07/27 05:00:44;;;;;;;;;;;13.70;99.90;;;;;;4994760;28;20007;-79
2023/07/27 05:03:10;;;;;;;;;;;13.80;99.90;;;;;;4992620;28;19925;-78
2023/07/27 05:05:41;;;;;;;;;;;13.80;99.90;;;;;;4976492;28;19922;-78
2023/07/27 05:08:07;;;;;;;;;;;13.80;99.90;;;;;;4976475;28;20406;-79
2023/07/27 05:10:32;;;;;;;;;;;13.80;99.90;;;;;;4976629;28;19918;-79
2023/07/27 05:12:58;;;;;;;;;;;13.80;99.90;;;;;;4976610;28;19965;-79
2023/07/27 05:15:23;;;;;;;;;;;13.80;99.90;;;;;;4960449;28;19918;-79
2023/07/27 05:17:49;;;;;;;;;;;13.80;99.90;;;;;;4978992;28;19925;-79
2023/07/27 05:20:14;;;;;;;;;;;13.80;99.90;;;;;;4975486;28;19922;-77
2023/07/27 05:22:42;;;;;;;;;;;13.80;99.90;;;;;;4976211;28;19944;-78
2023/07/27 05:25:10;;;;;;;;;;;13.90;99.90;;;;;;4975816;28;19918;-79
2023/07/27 05:27:36;;;;;;;;;;;13.90;99.90;;;;;;4975550;28;19921;-78
2023/07/27 05:30:02;;;;;;;;;;;13.90;99.90;;;;;;4983345;28;19917;-78
2023/07/27 05:32:27;;;;;;;;;;;13.90;99.90;;;;;;4986755;28;21009;-78
2023/07/27 05:34:54;;;;;;;;;;;13.90;99.90;;;;;;4976281;28;19964;-77
2023/07/27 05:37:20;;;;;;;;;;;13.90;99.90;;;;;;4976158;28;19917;-78
2023/07/27 05:39:46;;;;;;;;;;;13.90;99.90;;;;;;4976217;28;19977;-78
2023/07/27 05:42:11;;;;;;;;;;;13.90;99.90;;;;;;4974579;28;20305;-78
2023/07/27 05:44:37;;;;;;;;;;;13.90;99.90;;;;;;4976090;28;19917;-78
2023/07/27 05:47:05;;;;;;;;;;;13.90;99.90;;;;;;4975724;28;20033;-78
2023/07/27 05:49:31;;;;;;;;;;;13.90;99.90;;;;;;4975779;28;20433;-78
2023/07/27 05:51:57;;;;;;;;;;;13.90;99.90;;;;;;4977147;28;19985;-77
2023/07/27 05:54:22;;;;;;;;;;;14.00;99.90;;;;;;4975758;28;19918;-79
2023/07/27 05:56:48;;;;;;;;;;;14.00;99.90;;;;;;4975766;28;20308;-78
2023/07/27 05:59:14;;;;;;;;;;;14.00;99.90;;;;;;4975778;28;19918;-78
2023/07/27 06:01:39;;;;;;;;;;;14.00;99.90;;;;;;4975302;28;20396;-78
2023/07/27 06:04:06;;;;;;;;;;;14.00;99.90;;;;;;4975807;28;20340;-78
2023/07/27 06:06:31;;;;;;;;;;;14.10;99.90;;;;;;4975706;28;19969;-79
2023/07/27 06:08:57;;;;;;;;;;;14.00;99.90;;;;;;4975437;28;20369;-79
2023/07/27 06:11:23;;;;;;;;;;;14.10;99.90;;;;;;4975376;28;19988;-78
2023/07/27 06:13:48;;;;;;;;;;;14.10;99.90;;;;;;4975306;28;19917;-79
2023/07/27 06:16:15;;;;;;;;;;;14.10;99.90;;;;;;4975782;28;19973;-78
2023/07/27 06:18:40;;;;;;;;;;;14.10;99.90;;;;;;4975229;28;19917;-79
2023/07/27 06:21:06;;;;;;;;;;;14.20;99.90;;;;;;4959087;28;19922;-78
2023/07/27 06:23:32;;;;;;;;;;;14.20;99.90;;;;;;4975476;28;19918;-80
2023/07/27 06:25:57;;;;;;;;;;;14.20;99.90;;;;;;4976456;28;19940;-80
2023/07/27 06:28:23;;;;;;;;;;;14.20;99.90;;;;;;4975370;28;20380;-78
2023/07/27 06:30:48;;;;;;;;;;;14.20;99.90;;;;;;4974710;28;20386;-78
2023/07/27 06:33:14;;;;;;;;;;;14.30;99.90;;;;;;4975152;28;19918;-78
2023/07/27 06:35:40;;;;;;;;;;;14.30;99.90;;;;;;4974747;28;19968;-78
2023/07/27 06:38:05;;;;;;;;;;;14.30;99.90;;;;;;4974762;28;19918;-80
2023/07/27 06:40:31;;;;;;;;;;;14.30;99.90;;;;;;4958830;28;19917;-80
2023/07/27 06:42:56;;;;;;;;;;;14.30;99.90;;;;;;4974846;28;19972;-79
2023/07/27 06:45:22;;;;;;;;;;;14.30;99.90;;;;;;4974985;28;19969;-79
2023/07/27 06:47:47;;;;;;;;;;;14.30;99.90;;;;;;4974865;28;20365;-80
2023/07/27 06:50:13;;;;;;;;;;;14.30;99.90;;;;;;4974963;28;20008;-77
2023/07/27 06:52:38;;;;;;;;;;;14.40;99.90;;;;;;4974757;28;19929;-76
2023/07/27 06:55:06;;;;;;;;;;;14.40;99.90;;;;;;4974379;28;20004;-78
2023/07/27 06:57:31;;;;;;;;;;;14.40;99.90;;;;;;4974885;28;20257;-79
2023/07/27 06:59:57;;;;;;;;;;;14.40;99.90;;;;;;4974495;28;19921;-78
2023/07/27 07:02:23;;;;;;;;;;;14.40;99.90;;;;;;4974365;28;19929;-78
2023/07/27 07:04:48;;;;;;;;;;;14.40;99.90;;;;;;4974253;28;19960;-78
2023/07/27 07:07:14;;;;;;;;;;;14.50;99.90;;;;;;4974429;28;20289;-78
2023/07/27 07:09:40;;;;;;;;;;;14.40;99.90;;;;;;4974469;28;19918;-78
2023/07/27 07:12:06;;;;;;;;;;;14.40;99.90;;;;;;4974210;28;19991;-78
2023/07/27 07:14:32;;;;;;;;;;;14.50;99.90;;;;;;4974280;28;20325;-78
2023/07/27 07:17:01;;;;;;;;;;;14.50;99.90;;;;;;4974393;28;20005;-78
2023/07/27 07:19:26;;;;;;;;;;;14.50;99.90;;;;;;4974066;28;20385;-78
2023/07/27 07:21:52;;;;;;;;;;;14.50;99.90;;;;;;4973984;28;19929;-78
2023/07/27 07:24:18;;;;;;;;;;;14.50;99.90;;;;;;4957998;28;19925;-77
2023/07/27 07:26:45;;;;;;;;;;;14.60;99.90;;;;;;4974031;28;19969;-77
2023/07/27 07:29:11;;;;;;;;;;;14.50;99.90;;;;;;4974019;28;20001;-77
2023/07/27 07:31:36;;;;;;;;;;;14.50;99.90;;;;;;4974455;28;20380;-77
2023/07/27 07:34:02;;;;;;;;;;;14.50;99.90;;;;;;4974108;28;19974;-78
2023/07/27 07:36:27;;;;;;;;;;;14.60;99.90;;;;;;4974279;28;20005;-78
2023/07/27 07:38:53;;;;;;;;;;;14.60;99.90;;;;;;4973851;28;19925;-78
2023/07/27 07:41:19;;;;;;;;;;;14.50;99.90;;;;;;4973713;28;20341;-77
2023/07/27 07:43:44;;;;;;;;;;;14.60;99.90;;;;;;4973761;28;19976;-78
2023/07/27 07:46:10;;;;;;;;;;;14.60;99.90;;;;;;4973684;28;19925;-77
2023/07/27 07:48:36;;;;;;;;;;;14.60;99.90;;;;;;4973723;28;19922;-77
2023/07/27 07:51:01;;;;;;;;;;;14.60;99.90;;;;;;4973615;28;19918;-76
2023/07/27 07:53:27;;;;;;;;;;;14.60;99.90;;;;;;4974857;28;19924;-77
2023/07/27 07:55:52;;;;;;;;;;;14.60;99.90;;;;;;4974247;28;19924;-79
2023/07/27 07:58:18;;;;;;;;;;;14.60;99.90;;;;;;4976950;28;20025;-77
2023/07/27 08:00:43;;;;;;;;;;;14.60;99.90;;;;;;4993022;28;20282;-77
2023/07/27 08:03:09;;;;;;;;;;;14.60;99.90;;;;;;4993377;28;19945;-77
2023/07/27 08:05:34;;;;;;;;;;;14.60;99.90;;;;;;4993946;28;19981;-78
2023/07/27 08:08:01;;;;;;;;;;;14.70;99.90;;;;;;4998552;28;20013;-77
2023/07/27 08:10:26;;;;;;;;;;;14.70;99.90;;;;;;4998072;28;20324;-77
2023/07/27 08:12:53;;;;;;;;;;;14.70;99.90;;;;;;4997392;28;19917;-78
2023/07/27 08:15:19;;;;;;;;;;;14.70;99.90;;;;;;4998189;28;20353;-77
2023/07/27 08:17:44;;;;;;;;;;;14.70;99.90;;;;;;4996935;28;19918;-77
2023/07/27 08:20:10;;;;;;;;;;;14.80;99.90;;;;;;4996778;28;19918;-77
2023/07/27 08:22:35;;;;;;;;;;;14.80;99.90;;;;;;4996837;28;19992;-78
2023/07/27 08:25:01;;;;;;;;;;;14.80;99.90;;;;;;4996745;28;19918;-78
2023/07/27 08:27:27;;;;;;;;;;;14.80;99.90;;;;;;4996776;28;19918;-78
2023/07/27 08:29:52;;;;;;;;;;;14.80;99.90;;;;;;4998228;28;19925;-77
2023/07/27 08:32:18;;;;;;;;;;;14.80;99.90;;;;;;4996479;28;19918;-77
2023/07/27 08:34:43;;;;;;;;;;;14.80;99.90;;;;;;4996719;28;20000;-78
2023/07/27 08:37:09;;;;;;;;;;;14.80;99.90;;;;;;4997878;28;19991;-78
2023/07/27 08:39:34;;;;;;;;;;;14.90;99.90;;;;;;4997838;28;19918;-78
2023/07/27 08:42:00;;;;;;;;;;;14.90;99.90;;;;;;4997815;28;19922;-78
2023/07/27 08:44:26;;;;;;;;;;;14.90;99.90;;;;;;4998168;28;19922;-78
2023/07/27 08:46:53;;;;;;;;;;;14.90;99.90;;;;;;4980132;28;19964;-78
2023/07/27 08:49:19;;;;;;;;;;;14.90;99.90;;;;;;4996498;28;19917;-78
2023/07/27 08:51:44;;;;;;;;;;;15.00;99.90;;;;;;4996101;28;20278;-78
2023/07/27 08:54:10;;;;;;;;;;;15.00;99.90;;;;;;4996306;28;20004;-79
2023/07/27 08:56:36;;;;;;;;;;;15.00;99.90;;;;;;4996479;28;19949;-78
2023/07/27 08:59:02;;;;;;;;;;;15.00;99.90;;;;;;4997465;28;19921;-78
2023/07/27 09:01:27;;;;;;;;;;;15.10;99.90;;;;;;4997635;28;19953;-78
2023/07/27 09:03:53;;;;;;;;;;;15.20;99.90;;;;;;4996026;28;19922;-77
2023/07/27 09:06:36;;;;;;;;;;;15.20;99.90;;;;;;4979998;28;20008;-78
2023/07/27 09:09:20;;;;;;;;;;;15.20;99.90;;;;;;4995926;28;19925;-78
2023/07/27 09:11:46;;;;;;;;;;;15.30;99.90;;;;;;4995909;28;19925;-78
2023/07/27 09:14:12;;;;;;;;;;;15.30;99.90;;;;;;4996118;28;19975;-77
2023/07/27 09:16:38;;;;;;;;;;;15.30;99.90;;;;;;4996805;28;19918;-77
2023/07/27 09:19:04;;;;;;;;;;;15.30;99.90;;;;;;4997062;28;19968;-77
2023/07/27 09:21:40;;;;;;;;;;;15.30;99.90;;;;;;4995492;28;19965;-77
2023/07/27 09:24:10;;;;;;;;;;;15.30;99.90;;;;;;4995615;28;19921;-77
2023/07/27 09:26:42;;;;;;;;;;;15.40;99.90;;;;;;4997075;28;19917;-77
2023/07/27 09:29:08;;;;;;;;;;;15.40;99.90;;;;;;4979289;28;19953;-77
2023/07/27 09:31:36;;;;;;;;;;;15.50;99.90;;;;;;4995415;28;19925;-77
2023/07/27 09:34:03;;;;;;;;;;;15.50;99.90;;;;;;4995714;28;20333;-78
2023/07/27 09:36:29;;;;;;;;;;;15.60;99.90;;;;;;4995382;28;19917;-77
2023/07/27 09:38:54;;;;;;;;;;;15.60;99.90;;;;;;4995681;28;19917;-77
2023/07/27 09:41:22;;;;;;;;;;;15.60;99.90;;;;;;4996429;28;20395;-77
2023/07/27 09:43:48;;;;;;;;;;;15.70;99.90;;;;;;4979446;28;19918;-77
2023/07/27 09:46:13;;;;;;;;;;;15.70;99.90;;;;;;4995520;28;20258;-77
2023/07/27 09:48:39;;;;;;;;;;;15.70;99.90;;;;;;4995197;28;20389;-77
2023/07/27 09:51:07;;;;;;;;;;;15.80;99.90;;;;;;4995391;28;20329;-77
2023/07/27 09:53:35;;;;;;;;;;;15.80;99.90;;;;;;4995314;28;19918;-77
2023/07/27 09:56:01;;;;;;;;;;;15.80;99.90;;;;;;4988876;28;20004;-77
2023/07/27 09:58:27;;;;;;;;;;;15.90;99.90;;;;;;4975063;28;20374;-78
2023/07/27 10:00:53;;;;;;;;;;;15.90;99.90;;;;;;4975374;28;19969;-77
2023/07/27 10:03:19;;;;;;;;;;;16.00;99.90;;;;;;4975503;28;20326;-76
2023/07/27 10:05:44;;;;;;;;;;;16.00;99.90;;;;;;4975772;28;19942;-77
2023/07/27 10:08:10;;;;;;;;;;;16.10;99.90;;;;;;4977152;28;19922;-76
2023/07/27 10:10:38;;;;;;;;;;;16.10;99.90;;;;;;4976746;28;19917;-77
2023/07/27 10:13:10;;;;;;;;;;;16.10;99.90;;;;;;4974284;28;19917;-77
2023/07/27 10:15:42;;;;;;;;;;;16.20;99.90;;;;;;4958992;28;19929;-77
2023/07/27 10:18:11;;;;;;;;;;;16.20;99.90;;;;;;4975233;28;19918;-79
2023/07/27 10:20:36;;;;;;;;;;;16.20;99.90;;;;;;4974735;28;19925;-77
2023/07/27 10:23:13;;;;;;;;;;;16.30;99.90;;;;;;4975052;28;20290;-77
2023/07/27 10:25:57;;;;;;;;;;;16.30;99.90;;;;;;4975377;28;19918;-77
2023/07/27 10:28:30;;;;;;;;;;;16.30;99.90;;;;;;4986068;28;19918;-79
2023/07/27 10:31:15;;;;;;;;;;;16.40;99.90;;;;;;4994149;28;20373;-77
2023/07/27 10:33:45;;;;;;;;;;;16.40;99.90;;;;;;4994307;28;19917;-78
2023/07/27 10:36:10;;;;;;;;;;;16.50;99.90;;;;;;4995600;28;20452;-78
2023/07/27 10:38:36;;;;;;;;;;;16.50;99.90;;;;;;4978052;28;20016;-78
2023/07/27 10:41:12;;;;;;;;;;;16.50;99.90;;;;;;4994237;28;19964;-78
2023/07/27 10:43:37;;;;;;;;;;;16.60;99.90;;;;;;4994376;28;19917;-81
2023/07/27 10:46:20;;;;;;;;;;;16.60;99.90;;;;;;4994229;28;19917;-78
2023/07/27 10:49:09;;;;;;;;;;;16.60;99.90;;;;;;4994484;28;20266;-79
2023/07/27 10:51:34;;;;;;;;;;;16.70;99.90;;;;;;4983870;28;19917;-79
2023/07/27 10:54:00;;;;;;;;;;;16.70;99.90;;;;;;4994315;28;19940;-79
2023/07/27 10:56:26;;;;;;;;;;;16.80;99.90;;;;;;4995406;28;20297;-78
2023/07/27 10:58:55;;;;;;;;;;;16.80;99.90;;;;;;4995142;28;19922;-77
2023/07/27 11:01:21;;;;;;;;;;;16.90;99.90;;;;;;4994018;28;20047;-78
2023/07/27 11:03:47;;;;;;;;;;;16.90;99.90;;;;;;4995173;28;19980;-78
2023/07/27 11:06:13;;;;;;;;;;;17.00;99.90;;;;;;4993801;28;19924;-78
2023/07/27 11:08:40;;;;;;;;;;;17.00;99.90;;;;;;4993748;28;20015;-80
2023/07/27 11:11:19;;;;;;;;;;;17.00;99.90;;;;;;4993671;28;19922;-78
2023/07/27 11:13:45;;;;;;;;;;;17.00;99.90;;;;;;4993762;28;20016;-79
2023/07/27 11:16:12;;;;;;;;;;;17.10;99.90;;;;;;4994258;28;19953;-79
2023/07/27 11:18:37;;;;;;;;;;;17.10;99.90;;;;;;4993714;28;19948;-79
2023/07/27 11:21:03;;;;;;;;;;;17.10;99.90;;;;;;4993995;28;19922;-80
2023/07/27 11:23:29;;;;;;;;;;;17.20;99.90;;;;;;4994182;28;20366;-79
2023/07/27 11:25:55;;;;;;;;;;;17.20;99.90;;;;;;4993913;28;19976;-79
2023/07/27 11:28:21;;;;;;;;;;;17.20;99.90;;;;;;4994346;28;19928;-79
2023/07/27 11:30:53;;;;;;;;;;;17.20;99.90;;;;;;4993742;28;19921;-80
2023/07/27 11:33:26;;;;;;;;;;;17.20;99.90;;;;;;4995020;28;19918;-79
2023/07/27 11:35:52;;;;;;;;;;;17.20;99.90;;;;;;4993987;28;19917;-78
2023/07/27 11:38:17;;;;;;;;;;;17.20;99.90;;;;;;4993718;28;19918;-78
2023/07/27 11:40:44;;;;;;;;;;;17.20;99.90;;;;;;4992525;28;20297;-78
2023/07/27 11:43:09;;;;;;;;;;;17.20;99.90;;;;;;4993997;28;19918;-80
2023/07/27 11:45:37;;;;;;;;;;;17.10;99.90;;;;;;4994342;28;19925;-78
2023/07/27 11:48:03;;;;;;;;;;;17.20;99.90;;;;;;4993570;28;19925;-79
2023/07/27 11:50:29;;;;;;;;;;;17.20;99.90;;;;;;4994811;28;20432;-80
2023/07/27 11:52:59;;;;;;;;;;;17.20;99.90;;;;;;4995022;28;19972;-78
2023/07/27 11:55:25;;;;;;;;;;;17.20;99.90;;;;;;4993664;28;19997;-79
2023/07/27 11:57:51;;;;;;;;;;;17.20;99.90;;;;;;4993497;28;19917;-79
2023/07/27 12:00:17;;;;;;;;;;;17.20;99.90;;;;;;4993395;28;19925;-78
2023/07/27 12:02:46;;;;;;;;;;;17.30;99.90;;;;;;4993079;28;20337;-79
2023/07/27 12:05:13;;;;;;;;;;;17.30;99.90;;;;;;4977245;28;19961;-78
2023/07/27 12:07:39;;;;;;;;;;;17.30;99.90;;;;;;4976990;28;19972;-78
2023/07/27 12:10:06;;;;;;;;;;;17.40;99.90;;;;;;4993617;28;20297;-79
2023/07/27 12:12:32;;;;;;;;;;;17.40;99.90;;;;;;4993163;28;19918;-79
2023/07/27 12:14:58;;;;;;;;;;;17.40;99.90;;;;;;4993690;28;20028;-80
2023/07/27 12:17:26;;;;;;;;;;;17.50;99.90;;;;;;4993853;28;20369;-79
2023/07/27 12:19:52;;;;;;;;;;;17.50;99.90;;;;;;4994750;28;19917;-80
2023/07/27 12:22:18;;;;;;;;;;;17.50;99.90;;;;;;4994438;28;19921;-80
2023/07/27 12:24:44;;;;;;;;;;;17.50;99.90;;;;;;4993351;28;19918;-79
2023/07/27 12:27:09;;;;;;;;;;;17.50;99.90;;;;;;4994710;28;19925;-78
2023/07/27 12:29:35;;;;;;;;;;;17.50;99.90;;;;;;4993012;28;19918;-78
2023/07/27 12:32:00;;;;;;;;;;;17.60;99.90;;;;;;4994323;28;20289;-79
2023/07/27 12:34:26;;;;;;;;;;;17.60;99.90;;;;;;4977115;28;20389;-79
2023/07/27 12:36:51;;;;;;;;;;;17.70;99.90;;;;;;4992902;28;19972;-79
2023/07/27 12:39:18;;;;;;;;;;;17.80;99.90;;;;;;4993402;28;19917;-78
2023/07/27 12:41:44;;;;;;;;;;;17.80;99.90;;;;;;4992712;28;20337;-77
2023/07/27 12:44:09;;;;;;;;;;;17.90;99.90;;;;;;4993032;28;19918;-78
2023/07/27 12:46:35;;;;;;;;;;;17.90;99.90;;;;;;4994209;28;19917;-78
2023/07/27 12:49:00;;;;;;;;;;;17.90;99.90;;;;;;4992715;28;20004;-78
2023/07/27 12:51:26;;;;;;;;;;;17.80;99.90;;;;;;4993246;28;19922;-79
2023/07/27 12:53:52;;;;;;;;;;;17.90;99.90;;;;;;4996509;28;20285;-79
2023/07/27 12:56:18;;;;;;;;;;;17.90;99.90;;;;;;4996595;28;19917;-78
2023/07/27 12:58:43;;;;;;;;;;;17.90;99.90;;;;;;4996409;28;19917;-78
2023/07/27 13:01:09;;;;;;;;;;;17.90;99.90;;;;;;4995781;28;19921;-80
2023/07/27 13:03:36;;;;;;;;;;;17.80;99.90;;;;;;4996683;28;19918;-79
2023/07/27 13:06:02;;;;;;;;;;;17.80;99.90;;;;;;4995406;28;19991;-79
2023/07/27 13:08:28;;;;;;;;;;;17.80;99.90;;;;;;4979619;28;20262;-78
2023/07/27 13:10:54;;;;;;;;;;;17.80;99.90;;;;;;4979304;28;19917;-79
2023/07/27 13:13:19;;;;;;;;;;;17.80;99.90;;;;;;4997467;28;19917;-79
2023/07/27 13:15:45;;;;;;;;;;;17.90;99.90;;;;;;4996732;28;19957;-77
2023/07/27 13:18:10;;;;;;;;;;;17.90;99.90;;;;;;4995787;28;20393;-80
2023/07/27 13:20:38;;;;;;;;;;;18.00;99.90;;;;;;4995230;28;19917;-80
2023/07/27 13:23:03;;;;;;;;;;;18.00;99.90;;;;;;4995073;28;19922;-79
2023/07/27 13:25:29;;;;;;;;;;;18.00;99.90;;;;;;4995084;28;19980;-79
2023/07/27 13:27:55;;;;;;;;;;;18.10;99.90;;;;;;4995248;28;19917;-79
2023/07/27 13:30:20;;;;;;;;;;;18.10;99.90;;;;;;4996062;28;19984;-78
2023/07/27 13:32:46;;;;;;;;;;;18.20;99.90;;;;;;4995700;28;20008;-79
2023/07/27 13:35:12;;;;;;;;;;;18.10;99.90;;;;;;4995693;28;19941;-78
2023/07/27 13:37:37;;;;;;;;;;;18.10;99.90;;;;;;4994620;28;19943;-79
2023/07/27 13:40:03;;;;;;;;;;;18.20;99.90;;;;;;4994683;28;19917;-79
2023/07/27 13:42:28;;;;;;;;;;;18.20;99.90;;;;;;4994582;28;19922;-78
2023/07/27 13:44:54;;;;;;;;;;;18.20;99.90;;;;;;4995941;28;19917;-80
2023/07/27 13:47:19;;;;;;;;;;;18.20;99.90;;;;;;4994678;28;19918;-79
2023/07/27 13:49:45;;;;;;;;;;;18.20;99.90;;;;;;4995066;28;20343;-78
2023/07/27 13:52:11;;;;;;;;;;;18.20;99.90;;;;;;4994421;28;19918;-80
2023/07/27 13:54:36;;;;;;;;;;;18.20;99.90;;;;;;4978234;28;20012;-79
2023/07/27 13:57:02;;;;;;;;;;;18.30;99.90;;;;;;4995915;28;19960;-79
2023/07/27 13:59:27;;;;;;;;;;;18.30;99.90;;;;;;4978237;28;20368;-80
2023/07/27 14:01:53;;;;;;;;;;;18.20;99.90;;;;;;4955194;28;1156846;-79
2023/07/27 14:04:18;;;;;;;;;;;18.20;99.90;;;;;;4994929;28;20365;-75
2023/07/27 14:06:44;;;;;;;;;;;18.10;99.90;;;;;;4995734;28;20321;-80
2023/07/27 14:09:10;;;;;;;;;;;18.20;99.90;;;;;;4995646;28;20005;-78
2023/07/27 14:11:35;;;;;;;;;;;18.20;99.90;;;;;;4979481;28;19965;-78
2023/07/27 14:14:02;;;;;;;;;;;18.20;99.90;;;;;;4975793;28;19949;-77
2023/07/27 14:16:27;;;;;;;;;;;18.20;99.90;;;;;;4977648;28;19918;-79
2023/07/27 14:18:53;;;;;;;;;;;18.10;99.90;;;;;;4975581;28;19918;-78
2023/07/27 14:21:18;;;;;;;;;;;18.10;99.90;;;;;;4975626;28;19930;-78
2023/07/27 14:23:44;;;;;;;;;;;18.10;99.90;;;;;;4977509;28;19918;-80
2023/07/27 14:26:10;;;;;;;;;;;18.10;99.90;;;;;;4976152;28;19925;-78
2023/07/27 14:28:35;;;;;;;;;;;18.10;99.90;;;;;;4976226;28;20366;-79
2023/07/27 14:31:01;;;;;;;;;;;18.10;99.90;;;;;;4975438;28;20301;-79
2023/07/27 14:33:26;;;;;;;;;;;18.10;99.90;;;;;;4975660;28;19922;-79
2023/07/27 14:35:52;;;;;;;;;;;18.10;99.90;;;;;;4975622;28;19918;-77
2023/07/27 14:38:17;;;;;;;;;;;18.10;99.90;;;;;;4959561;28;19925;-79
2023/07/27 14:40:43;;;;;;;;;;;18.00;99.90;;;;;;4976422;28;19925;-80
2023/07/27 14:43:08;;;;;;;;;;;18.00;99.90;;;;;;4975220;28;19922;-77
2023/07/27 14:45:36;;;;;;;;;;;18.00;99.90;;;;;;4975416;28;19917;-78
2023/07/27 14:48:02;;;;;;;;;;;18.00;99.90;;;;;;4977586;28;19918;-79
2023/07/27 14:50:28;;;;;;;;;;;18.00;99.90;;;;;;4975151;28;20049;-78
2023/07/27 14:52:54;;;;;;;;;;;18.00;99.90;;;;;;4976064;28;20016;-78
2023/07/27 14:55:19;;;;;;;;;;;18.00;99.90;;;;;;4975351;28;20365;-79
2023/07/27 14:57:45;;;;;;;;;;;18.00;99.90;;;;;;4977000;28;19918;-80
2023/07/27 15:00:11;;;;;;;;;;;18.00;99.90;;;;;;4976523;28;19918;-79
2023/07/27 15:02:37;;;;;;;;;;;18.00;99.90;;;;;;4975201;28;19938;-78
2023/07/27 15:05:02;;;;;;;;;;;18.00;99.90;;;;;;4976310;28;19922;-77
2023/07/27 15:07:28;;;;;;;;;;;18.00;99.90;;;;;;4975022;28;19993;-80
2023/07/27 15:09:54;;;;;;;;;;;17.90;99.90;;;;;;4976605;28;19968;-80
2023/07/27 15:12:19;;;;;;;;;;;17.90;99.90;;;;;;4974956;28;19925;-79
2023/07/27 15:14:45;;;;;;;;;;;17.90;99.90;;;;;;4975248;28;19918;-80
2023/07/27 15:17:11;;;;;;;;;;;17.90;99.90;;;;;;4975260;28;19918;-78
2023/07/27 15:19:36;;;;;;;;;;;17.90;99.90;;;;;;4975377;28;19932;-80
2023/07/27 15:22:02;;;;;;;;;;;17.90;99.90;;;;;;4976039;28;20362;-78
2023/07/27 15:24:28;;;;;;;;;;;17.90;99.90;;;;;;4975619;28;19918;-80
2023/07/27 15:26:53;;;;;;;;;;;17.80;99.90;;;;;;4959289;28;19924;-79
2023/07/27 15:29:19;;;;;;;;;;;17.80;99.90;;;;;;4958810;28;19924;-80
2023/07/27 15:31:45;;;;;;;;;;;17.90;99.90;;;;;;4975516;28;19918;-81
2023/07/27 15:34:10;;;;;;;;;;;17.90;99.90;;;;;;4976586;28;19933;-80
2023/07/27 15:36:36;;;;;;;;;;;17.90;99.90;;;;;;4976150;28;20218;-80
2023/07/27 15:39:02;;;;;;;;;;;18.00;99.90;;;;;;4974485;28;20279;-79
2023/07/27 15:41:27;;;;;;;;;;;18.00;99.90;;;;;;4976346;28;19929;-80
2023/07/27 15:43:53;;;;;;;;;;;18.00;99.90;;;;;;4975473;28;20425;-79
2023/07/27 15:46:19;;;;;;;;;;;18.00;99.90;;;;;;4959293;28;19918;-79
2023/07/27 15:48:44;;;;;;;;;;;18.00;99.90;;;;;;4975158;28;20417;-80
2023/07/27 15:51:10;;;;;;;;;;;18.00;99.90;;;;;;4975641;28;19972;-79
2023/07/27 15:53:37;;;;;;;;;;;18.00;99.90;;;;;;4974937;28;19972;-78
2023/07/27 15:56:06;;;;;;;;;;;18.00;99.90;;;;;;4974491;28;19925;-80
2023/07/27 15:58:32;;;;;;;;;;;18.00;99.90;;;;;;4974398;28;19917;-79
2023/07/27 16:00:58;;;;;;;;;;;18.00;99.90;;;;;;4974427;28;19918;-80
2023/07/27 16:03:24;;;;;;;;;;;18.00;99.90;;;;;;4974486;28;19976;-80
2023/07/27 16:05:49;;;;;;;;;;;18.10;99.90;;;;;;4974866;28;19918;-81
2023/07/27 16:08:15;;;;;;;;;;;18.10;99.90;;;;;;4974316;28;20391;-79
2023/07/27 16:10:41;;;;;;;;;;;18.10;99.90;;;;;;4975292;28;20393;-80
2023/07/27 16:13:07;;;;;;;;;;;18.10;99.90;;;;;;4976091;28;19940;-80
2023/07/27 16:15:33;;;;;;;;;;;18.10;99.90;;;;;;4975891;28;20362;-77
2023/07/27 16:17:58;;;;;;;;;;;18.20;99.90;;;;;;4974484;28;19918;-80
2023/07/27 16:20:24;;;;;;;;;;;18.10;99.90;;;;;;4957789;28;19918;-80
2023/07/27 16:22:50;;;;;;;;;;;18.10;99.90;;;;;;4974348;28;19928;-78
2023/07/27 16:25:15;;;;;;;;;;;18.20;99.90;;;;;;4973898;28;19968;-80
2023/07/27 16:27:41;;;;;;;;;;;18.20;99.90;;;;;;4977004;28;19929;-79
2023/07/27 16:30:07;;;;;;;;;;;18.30;99.90;;;;;;4979463;28;19918;-81
2023/07/27 16:32:33;;;;;;;;;;;18.30;99.90;;;;;;4977903;28;20008;-78
2023/07/27 16:34:59;;;;;;;;;;;18.30;99.90;;;;;;4977859;28;20015;-80
2023/07/27 16:37:25;;;;;;;;;;;18.30;99.90;;;;;;4979062;28;19918;-78
2023/07/27 16:39:52;;;;;;;;;;;18.30;99.90;;;;;;4977553;28;19918;-80
2023/07/27 16:42:17;;;;;;;;;;;18.30;99.90;;;;;;4978983;28;19922;-80
2023/07/27 16:44:43;;;;;;;;;;;18.30;99.90;;;;;;4979361;28;19925;-79
2023/07/27 16:47:09;;;;;;;;;;;18.30;99.90;;;;;;4977396;28;19918;-80
2023/07/27 16:49:35;;;;;;;;;;;18.30;99.90;;;;;;4961700;28;19918;-79
2023/07/27 16:52:00;;;;;;;;;;;18.30;99.90;;;;;;4977333;28;19972;-81
2023/07/27 16:54:26;;;;;;;;;;;18.20;99.90;;;;;;4977342;28;20049;-80
2023/07/27 16:56:52;;;;;;;;;;;18.20;99.90;;;;;;4979420;28;19976;-80
2023/07/27 16:59:17;;;;;;;;;;;18.30;99.90;;;;;;4977459;28;19918;-79
2023/07/27 17:01:43;;;;;;;;;;;18.20;99.90;;;;;;4976820;28;20002;-81
2023/07/27 17:04:08;;;;;;;;;;;18.20;99.90;;;;;;4978009;28;20004;-79
2023/07/27 17:06:34;;;;;;;;;;;18.20;99.90;;;;;;4997449;28;19962;-79
2023/07/27 17:08:59;;;;;;;;;;;18.20;99.90;;;;;;4980614;28;19917;-80
2023/07/27 17:11:25;;;;;;;;;;;18.20;99.90;;;;;;4998159;28;20289;-80